createdAt,value
2023-01-22T00:00:14.151Z,11.50
2023-01-22T00:04:24.113Z,14.80
2023-01-22T00:08:53.933Z,17.00
2023-01-22T00:13:07.785Z,7.40
2023-01-22T00:17:17.692Z,9.10
2023-01-22T00:21:28.759Z,10.30
2023-01-22T00:25:38.109Z,9.80
2023-01-22T00:29:48.440Z,10.60
2023-01-22T00:35:24.039Z,8.90
2023-01-22T00:39:53.219Z,10.90
2023-01-22T00:44:22.459Z,8.10
2023-01-22T00:48:51.688Z,19.80
2023-01-22T00:53:20.630Z,12.80
2023-01-22T00:57:49.558Z,12.50
2023-01-22T01:02:19.374Z,13.80
2023-01-22T01:06:48.558Z,10.70
2023-01-22T01:11:17.478Z,8.00
2023-01-22T01:15:46.356Z,15.60
2023-01-22T01:20:15.514Z,15.70
2023-01-22T01:24:45.124Z,10.80
2023-01-22T01:29:13.941Z,9.50
2023-01-22T01:33:43.180Z,11.60
2023-01-22T01:38:12.061Z,15.30
2023-01-22T01:42:42.347Z,11.40
2023-01-22T01:47:21.120Z,15.50
2023-01-22T01:51:49.906Z,12.20
2023-01-22T01:56:19.017Z,25.10
2023-01-22T02:00:48.538Z,16.80
2023-01-22T02:05:17.670Z,14.90
2023-01-22T02:09:46.623Z,12.30
2023-01-22T02:14:15.864Z,13.80
2023-01-22T02:18:45.732Z,16.40
2023-01-22T02:23:14.814Z,17.70
2023-01-22T02:27:43.849Z,16.50
2023-01-22T02:32:12.643Z,11.80
2023-01-22T02:36:41.707Z,12.90
2023-01-22T02:41:10.823Z,14.70
2023-01-22T02:45:39.872Z,18.70
2023-01-22T02:50:09.003Z,16.80
2023-01-22T02:54:38.105Z,25.70
2023-01-22T02:59:07.641Z,26.70
2023-01-22T03:03:36.674Z,21.60
2023-01-22T03:08:05.819Z,19.60
2023-01-22T03:12:34.846Z,21.80
2023-01-22T03:17:02.279Z,16.90
2023-01-22T03:21:34.762Z,22.20
2023-01-22T03:26:04.830Z,20.90
2023-01-22T03:30:33.908Z,25.50
2023-01-22T03:35:03.120Z,24.80
2023-01-22T03:39:47.467Z,19.30
2023-01-22T03:44:16.298Z,19.60
2023-01-22T03:48:45.433Z,24.90
2023-01-22T03:53:14.486Z,21.30
2023-01-22T03:57:43.854Z,17.50
2023-01-22T04:02:13.260Z,13.80
2023-01-22T04:06:42.441Z,25.30
2023-01-22T04:11:11.957Z,21.20
2023-01-22T04:15:41.084Z,22.60
2023-01-22T04:20:13.199Z,25.40
2023-01-22T04:24:42.524Z,23.70
2023-01-22T04:29:11.619Z,24.40
2023-01-22T04:33:40.735Z,20.50
2023-01-22T04:38:09.864Z,21.80
2023-01-22T04:42:39.185Z,21.10
2023-01-22T04:47:08.254Z,23.00
2023-01-22T04:51:41.726Z,16.50
2023-01-22T04:56:10.646Z,16.80
2023-01-22T05:00:39.804Z,21.00
2023-01-22T05:05:08.878Z,20.70
2023-01-22T05:09:38.754Z,19.80
2023-01-22T05:14:10.491Z,12.90
2023-01-22T05:18:37.830Z,22.80
2023-01-22T05:23:06.866Z,23.00
2023-01-22T05:27:36.237Z,10.70
2023-01-22T05:32:14.686Z,20.60
2023-01-22T05:36:43.963Z,13.20
2023-01-22T05:45:31.841Z,14.20
2023-01-22T05:49:30.376Z,18.30
2023-01-22T05:53:13.645Z,17.40
2023-01-22T05:56:58.903Z,16.10
2023-01-22T06:04:44.325Z,10.40
2023-01-22T06:08:55.519Z,20.70
2023-01-22T06:12:16.968Z,18.60
2023-01-22T06:15:48.345Z,10.40
2023-01-22T06:20:05.989Z,9.30
2023-01-22T06:24:07.729Z,10.00
2023-01-22T06:27:56.906Z,13.40
2023-01-22T06:31:46.124Z,11.20
2023-01-22T06:35:37.180Z,17.10
2023-01-22T06:39:22.565Z,18.30
2023-01-22T06:47:21.601Z,13.90
2023-01-22T06:50:52.562Z,20.50
2023-01-22T06:54:20.827Z,13.50
2023-01-22T06:57:57.470Z,15.40
2023-01-22T07:02:01.929Z,16.90
2023-01-22T07:05:44.604Z,18.60
2023-01-22T07:10:03.771Z,25.70
2023-01-22T07:14:10.672Z,22.20
2023-01-22T07:17:56.640Z,14.50
2023-01-22T07:22:32.441Z,24.00
2023-01-22T07:27:01.915Z,24.10
2023-01-22T07:31:12.309Z,23.40
2023-01-22T07:35:41.693Z,22.10
2023-01-22T07:40:14.040Z,19.90
2023-01-22T07:52:47.609Z,19.00
2023-01-22T07:56:22.852Z,19.10
2023-01-22T08:00:25.225Z,14.20
2023-01-22T08:04:25.827Z,16.20
2023-01-22T08:08:46.320Z,13.30
2023-01-22T08:12:40.864Z,16.00
2023-01-22T08:20:29.053Z,22.50
2023-01-22T08:24:05.102Z,17.90
2023-01-22T08:28:01.732Z,15.70
2023-01-22T08:35:58.511Z,20.90
2023-01-22T08:39:31.914Z,32.20
2023-01-22T08:42:55.877Z,19.70
2023-01-22T08:46:58.502Z,17.90
2023-01-22T08:50:49.081Z,20.90
2023-01-22T08:54:34.358Z,16.70
2023-01-22T08:58:33.315Z,23.40
2023-01-22T09:02:21.259Z,21.00
2023-01-22T09:05:58.020Z,17.90
2023-01-22T09:09:52.511Z,21.70
2023-01-22T09:13:48.830Z,19.80
2023-01-22T09:17:12.346Z,21.60
2023-01-22T09:21:27.018Z,26.70
2023-01-22T09:33:26.297Z,26.70
2023-01-22T09:37:03.641Z,17.10
2023-01-22T09:41:25.169Z,27.40
2023-01-22T09:45:15.827Z,32.20
2023-01-22T09:49:08.084Z,32.40
2023-01-22T09:52:23.787Z,30.30
2023-01-22T09:55:18.776Z,21.20
2023-01-22T09:59:02.599Z,39.40
2023-01-22T10:02:17.078Z,33.90
2023-01-22T10:06:10.839Z,42.80
2023-01-22T10:09:59.536Z,36.70
2023-01-22T10:13:16.780Z,37.30
2023-01-22T10:16:53.544Z,32.60
2023-01-22T10:20:14.871Z,37.90
2023-01-22T10:23:05.007Z,34.20
2023-01-22T10:25:45.681Z,33.60
2023-01-22T10:29:02.720Z,29.70
2023-01-22T10:32:59.350Z,33.80
2023-01-22T10:36:55.835Z,36.60
2023-01-22T10:40:52.855Z,31.50
2023-01-22T10:44:54.638Z,40.00
2023-01-22T10:48:34.545Z,33.40
2023-01-22T10:56:03.229Z,35.20
2023-01-22T11:04:01.617Z,30.40
2023-01-22T11:07:43.371Z,37.00
2023-01-22T11:11:50.682Z,25.10
2023-01-22T11:15:03.167Z,31.40
2023-01-22T11:19:32.626Z,36.30
2023-01-22T11:27:14.540Z,28.40
2023-01-22T11:30:56.893Z,28.20
2023-01-22T11:35:08.888Z,24.20
2023-01-22T11:38:46.510Z,25.40
2023-01-22T11:42:26.822Z,22.50
2023-01-22T11:46:32.935Z,25.30
2023-01-22T11:50:28.403Z,21.90
2023-01-22T11:54:20.468Z,25.00
2023-01-22T11:58:12.311Z,28.80
2023-01-22T12:01:59.385Z,26.10
2023-01-22T12:06:06.133Z,32.10
2023-01-22T12:09:52.993Z,28.30
2023-01-22T12:14:26.649Z,27.50
2023-01-22T12:19:08.701Z,32.00
2023-01-22T12:23:01.969Z,29.40
2023-01-22T12:32:11.520Z,26.80
2023-01-22T12:40:22.723Z,22.80
2023-01-22T12:44:18.353Z,26.60
2023-01-22T12:48:26.809Z,25.50
2023-01-22T12:57:07.091Z,30.40
2023-01-22T13:00:57.301Z,23.30
2023-01-22T13:05:24.078Z,30.10
2023-01-22T13:09:17.479Z,32.20
2023-01-22T13:13:18.636Z,27.30
2023-01-22T13:17:17.995Z,25.70
2023-01-22T13:21:02.481Z,27.50
2023-01-22T13:25:30.131Z,28.40
2023-01-22T13:34:15.758Z,35.60
2023-01-22T13:38:40.162Z,33.30
2023-01-22T13:43:00.877Z,42.40
2023-01-22T13:47:16.794Z,37.20
2023-01-22T13:51:44.969Z,39.70
2023-01-22T13:55:58.051Z,41.40
2023-01-22T14:00:33.358Z,37.80
2023-01-22T14:04:42.150Z,38.00
2023-01-22T14:08:54.417Z,39.50
2023-01-22T14:17:25.174Z,50.10
2023-01-22T14:25:44.951Z,45.80
2023-01-22T14:29:08.195Z,39.00
2023-01-22T14:32:52.950Z,44.50
2023-01-22T14:41:15.340Z,43.80
2023-01-22T14:48:39.483Z,32.60
2023-01-22T14:52:45.308Z,45.50
2023-01-22T15:00:59.886Z,55.70
2023-01-22T15:04:40.504Z,45.50
2023-01-22T15:09:04.978Z,34.00
2023-01-22T15:12:41.758Z,47.70
2023-01-22T15:16:46.023Z,39.50
2023-01-22T15:28:25.197Z,40.20
2023-01-22T15:32:50.260Z,39.30
2023-01-22T15:36:31.385Z,38.30
2023-01-22T15:39:55.933Z,48.20
2023-01-22T15:43:08.797Z,47.90
2023-01-22T15:47:12.696Z,41.20
2023-01-22T15:51:18.319Z,42.00
2023-01-22T16:11:39.416Z,45.30
2023-01-22T16:16:06.973Z,50.20
2023-01-22T16:20:14.158Z,62.60
2023-01-22T16:24:05.050Z,54.80
2023-01-22T16:27:50.390Z,57.40
2023-01-22T16:38:25.712Z,35.70
2023-01-22T16:45:18.522Z,24.80
2023-01-22T16:49:50.774Z,33.10
2023-01-22T16:54:06.753Z,37.70
2023-01-22T17:10:32.453Z,32.60
2023-01-22T17:14:23.949Z,54.70
2023-01-22T17:18:23.823Z,36.30
2023-01-22T17:22:21.564Z,45.50
2023-01-22T17:26:19.466Z,37.70
2023-01-22T17:29:53.604Z,36.20
2023-01-22T17:34:05.619Z,46.80
2023-01-22T17:37:54.911Z,31.70
2023-01-22T17:41:55.280Z,33.30
2023-01-22T17:46:06.757Z,24.60
2023-01-22T17:50:41.449Z,28.10
2023-01-22T17:59:34.344Z,34.30
2023-01-22T18:03:24.965Z,41.30
2023-01-22T18:07:16.345Z,29.40
2023-01-22T18:11:55.834Z,33.10
2023-01-22T18:25:02.906Z,21.50
2023-01-22T18:29:33.315Z,31.70
2023-01-22T18:45:34.548Z,39.50
2023-01-22T18:49:36.887Z,34.20
2023-01-22T18:53:26.240Z,40.70
2023-01-22T18:57:17.651Z,25.60
2023-01-22T19:05:42.870Z,33.90
2023-01-22T19:10:18.963Z,32.00
2023-01-22T19:14:22.351Z,31.60
2023-01-22T19:18:57.997Z,30.20
2023-01-22T19:23:33.843Z,36.90
2023-01-22T19:28:10.984Z,34.00
2023-01-22T19:32:44.655Z,38.80
2023-01-22T19:37:10.198Z,39.90
2023-01-22T19:41:48.480Z,45.60
2023-01-22T19:46:26.301Z,42.10
2023-01-22T19:50:57.744Z,39.50
2023-01-22T19:55:32.454Z,39.10
2023-01-22T20:00:03.366Z,40.40
2023-01-22T20:04:30.168Z,33.40
2023-01-22T20:13:11.247Z,47.30
2023-01-22T20:17:26.150Z,46.00
2023-01-22T20:21:17.680Z,43.40
2023-01-22T20:25:12.048Z,42.40
2023-01-22T20:29:08.693Z,35.80
2023-01-22T20:33:06.246Z,45.40
2023-01-22T20:37:00.338Z,39.90
2023-01-22T20:45:27.357Z,38.60
2023-01-22T20:50:04.643Z,46.00
2023-01-22T20:54:54.920Z,36.30
2023-01-22T20:59:12.182Z,44.30
2023-01-22T21:03:45.767Z,29.20
2023-01-22T21:08:19.699Z,52.60
2023-01-22T21:12:51.804Z,43.10
2023-01-22T21:21:51.234Z,31.50
2023-01-22T21:25:47.713Z,37.90
2023-01-22T21:29:21.885Z,49.00
2023-01-22T21:33:06.091Z,38.90
2023-01-22T21:41:11.582Z,37.90
2023-01-22T21:45:13.499Z,57.40
2023-01-22T21:53:30.834Z,39.60
2023-01-22T21:57:21.828Z,35.90
2023-01-22T22:01:13.436Z,42.80
2023-01-22T22:05:17.571Z,45.10
2023-01-22T22:09:11.775Z,44.20
2023-01-22T22:12:41.762Z,35.50
2023-01-22T22:16:03.682Z,35.70
2023-01-22T22:19:56.417Z,34.50
2023-01-22T22:23:37.708Z,35.00
2023-01-22T22:27:28.314Z,24.70
2023-01-22T22:32:05.222Z,45.70
2023-01-22T22:36:36.091Z,37.70
2023-01-22T22:45:25.952Z,35.50
2023-01-22T22:49:11.617Z,36.80
2023-01-22T22:53:07.497Z,27.20
2023-01-22T22:56:57.224Z,35.20
2023-01-22T23:00:46.459Z,32.00
2023-01-22T23:04:28.232Z,37.30
2023-01-22T23:08:19.621Z,37.10
2023-01-22T23:12:10.265Z,31.00
2023-01-22T23:16:05.257Z,40.90
2023-01-22T23:20:02.538Z,26.80
2023-01-22T23:23:31.001Z,41.00
2023-01-22T23:27:18.910Z,41.50
2023-01-22T23:31:12.465Z,33.80
2023-01-22T23:35:02.500Z,42.30
2023-01-22T23:42:48.957Z,38.70
2023-01-22T23:46:41.161Z,44.50
2023-01-22T23:50:38.123Z,37.20
2023-01-22T23:54:29.651Z,54.10
